Time;durP1;ratioP1;P1;durP2;ratioP2;P2;SDS_P1;SDS_P2;PMS_P1;PMS_P2;Temp;Humidity;BMP_temperature;BMP_pressure;BME280_temperature;BME280_humidity;BME280_pressure;Samples;Min_cycle;Max_cycle;Signal;HPM_P1;HPM_P2
2023/10/17 07:43:12;;;;;;;15.32;8.30;;;;;;;4.63;79.12;96605.50;2090955;28;20563;-64
2023/10/17 07:44:19;;;;;;;15.38;9.05;;;;;;;4.62;79.28;96608.13;2087444;28;20212;-64
2023/10/17 07:45:22;;;;;;;16.15;8.45;;;;;;;4.69;79.18;96607.09;2083261;28;20711;-64
2023/10/17 07:46:26;;;;;;;15.98;9.55;;;;;;;4.91;78.59;96602.28;2079662;28;20188;-64
2023/10/17 07:47:34;;;;;;;13.85;7.85;;;;;;;5.11;77.79;96606.16;2081543;28;20291;-64
2023/10/17 07:48:36;;;;;;;24.92;9.85;;;;;;;5.01;77.51;96606.38;2079270;28;20617;-64
2023/10/17 07:49:42;;;;;;;19.05;9.10;;;;;;;5.27;76.93;96607.50;2081351;28;20189;-64
2023/10/17 07:50:44;;;;;;;15.13;8.48;;;;;;;5.32;76.90;96597.88;2080593;28;20220;-64
2023/10/17 07:51:48;;;;;;;14.30;7.80;;;;;;;5.42;76.40;96595.91;2080490;28;20529;-64
2023/10/17 07:52:50;;;;;;;17.52;8.82;;;;;;;5.14;76.93;96599.19;2076842;28;20182;-64
2023/10/17 07:53:53;;;;;;;22.60;9.23;;;;;;;5.28;77.55;96600.56;2076328;28;20625;-64
2023/10/17 07:54:55;;;;;;;12.88;7.90;;;;;;;5.55;76.73;96594.72;2074853;28;20200;-63
2023/10/17 07:56:04;;;;;;;14.40;8.30;;;;;;;5.81;75.75;96598.34;2075819;28;20186;-64
2023/10/17 07:57:06;;;;;;;13.50;8.57;;;;;;;6.16;74.82;96598.34;2076278;28;20710;-64
2023/10/17 07:58:09;;;;;;;14.30;8.85;;;;;;;6.16;74.44;96591.41;2077019;28;20204;-64
2023/10/17 07:59:15;;;;;;;13.23;8.23;;;;;;;6.12;74.49;96594.97;2076682;28;20200;-64
2023/10/17 08:00:26;;;;;;;14.05;8.05;;;;;;;6.12;74.24;96591.53;2074229;28;20248;-64
2023/10/17 08:01:32;;;;;;;15.43;9.07;;;;;;;6.28;73.66;96586.78;2072723;28;20237;-64
2023/10/17 08:02:33;;;;;;;21.33;9.52;;;;;;;5.95;74.79;96591.97;2072558;28;20193;-64
2023/10/17 08:03:40;;;;;;;15.70;9.52;;;;;;;6.12;74.47;96583.75;2072847;28;20657;-65
2023/10/17 08:04:43;;;;;;;20.63;9.35;;;;;;;5.94;74.79;96596.31;2074646;28;20255;-65
2023/10/17 08:05:54;;;;;;;15.48;9.60;;;;;;;5.92;74.84;96597.22;2073462;28;20213;-65
2023/10/17 08:06:56;;;;;;;13.85;8.93;;;;;;;6.07;74.74;96591.66;2071268;28;20694;-63
2023/10/17 08:08:08;;;;;;;18.65;9.43;;;;;;;6.21;74.36;96586.09;2071724;28;20284;-63
2023/10/17 08:09:24;;;;;;;15.90;9.05;;;;;;;6.41;73.84;96587.25;2071262;28;20190;-63
2023/10/17 08:10:45;;;;;;;19.15;9.73;;;;;;;6.33;74.81;96585.72;2074069;28;20217;-63
2023/10/17 08:12:08;;;;;;;16.33;9.13;;;;;;;6.10;74.91;96586.38;2071032;28;20201;-63
2023/10/17 08:13:11;;;;;;;21.38;8.52;;;;;;;6.02;74.97;96588.34;2069947;28;20198;-64
2023/10/17 08:14:16;;;;;;;17.63;9.15;;;;;;;5.94;75.31;96596.31;2070440;28;20194;-63
2023/10/17 08:15:19;;;;;;;20.83;10.20;;;;;;;5.78;75.95;96588.09;2071469;28;20288;-64
2023/10/17 08:16:29;;;;;;;18.48;10.13;;;;;;;5.51;76.96;96590.50;2070123;28;20229;-63
2023/10/17 08:17:34;;;;;;;21.38;11.82;;;;;;;5.48;77.73;96584.53;2068553;28;20285;-63
2023/10/17 08:18:42;;;;;;;18.35;11.55;;;;;;;5.42;77.68;96590.72;2067039;28;20325;-63
2023/10/17 08:22:20;;;;;;;17.35;10.23;;;;;;;5.58;78.30;96583.41;2071781;28;20583;-64
2023/10/17 08:23:23;;;;;;;19.00;12.00;;;;;;;5.59;77.69;96590.31;2070739;28;20249;-65
2023/10/17 08:25:54;;;;;;;18.73;10.07;;;;;;;5.63;77.62;96588.50;2073664;28;20291;-65
2023/10/17 08:28:31;;;;;;;16.60;11.00;;;;;;;5.65;77.91;96582.38;2074217;28;20189;-65
2023/10/17 08:29:34;;;;;;;19.90;10.90;;;;;;;5.99;77.73;96581.50;2072400;28;20197;-65
2023/10/17 08:30:38;;;;;;;24.23;11.23;;;;;;;6.04;77.22;96578.78;2071853;28;20228;-65
2023/10/17 08:31:46;;;;;;;20.55;11.65;;;;;;;6.15;76.93;96578.50;2071461;28;20198;-65
2023/10/17 08:32:55;;;;;;;18.90;11.90;;;;;;;6.21;76.55;96580.91;2070528;28;20240;-65
2023/10/17 08:34:18;;;;;;;16.35;10.10;;;;;;;6.28;76.42;96579.81;2072242;28;20243;-65
2023/10/17 08:35:20;;;;;;;20.23;11.52;;;;;;;5.99;77.14;96584.09;2071824;28;20309;-65
2023/10/17 08:36:41;;;;;;;17.88;10.98;;;;;;;6.10;76.72;96575.19;2071703;28;20637;-65
2023/10/17 08:37:43;;;;;;;18.52;11.10;;;;;;;6.19;77.07;96574.91;2073504;28;20723;-65
2023/10/17 08:38:47;;;;;;;19.15;11.27;;;;;;;5.98;77.66;96573.72;2071406;28;20291;-65
2023/10/17 08:40:54;;;;;;;19.35;11.70;;;;;;;5.99;78.22;96588.41;2067441;28;20226;-65
2023/10/17 08:42:14;;;;;;;21.13;12.10;;;;;;;6.03;77.99;96587.44;2066821;28;20198;-65
2023/10/17 08:43:19;;;;;;;25.95;11.73;;;;;;;6.13;77.76;96595.81;2067166;28;20213;-65
2023/10/17 08:44:22;;;;;;;28.70;12.48;;;;;;;6.17;77.92;96589.66;2072320;28;20206;-65
2023/10/17 08:45:26;;;;;;;23.08;11.80;;;;;;;6.23;78.32;96592.06;2074503;28;20217;-65
2023/10/17 08:46:29;;;;;;;18.27;10.77;;;;;;;6.21;78.00;96586.94;2072077;28;20598;-63
2023/10/17 08:47:32;;;;;;;23.13;12.73;;;;;;;6.42;78.25;96597.59;2071217;28;20281;-64
2023/10/17 08:48:35;;;;;;;22.98;11.45;;;;;;;6.42;78.01;96586.38;2071301;28;20623;-64
2023/10/17 08:49:39;;;;;;;16.58;11.52;;;;;;;6.51;77.70;96578.31;2071451;28;20285;-63
2023/10/17 08:50:40;;;;;;;17.60;10.95;;;;;;;6.77;76.79;96589.69;2068629;28;20265;-63
2023/10/17 08:51:42;;;;;;;19.20;11.80;;;;;;;6.52;76.96;96596.41;2070435;28;20642;-64
2023/10/17 08:52:44;;;;;;;21.52;11.77;;;;;;;6.42;77.58;96587.22;2073713;28;20566;-64
2023/10/17 08:53:45;;;;;;;20.67;9.75;;;;;;;6.51;77.48;96597.34;2072409;28;20190;-63
2023/10/17 08:54:47;;;;;;;20.75;11.40;;;;;;;6.67;77.50;96600.31;2067550;28;20248;-64
2023/10/17 08:55:50;;;;;;;21.17;12.65;;;;;;;6.78;76.87;96592.22;2067257;28;20203;-64
2023/10/17 08:56:52;;;;;;;25.17;11.00;;;;;;;6.99;76.67;96595.88;2065841;28;20198;-63
2023/10/17 08:57:53;;;;;;;21.10;11.57;;;;;;;7.02;75.92;96595.81;2065726;28;20198;-63
2023/10/17 08:59:03;;;;;;;21.27;12.57;;;;;;;7.03;75.67;96586.25;2065585;28;20252;-64
2023/10/17 09:01:17;;;;;;;22.83;11.68;;;;;;;7.19;75.25;96586.63;2065287;28;20201;-63
2023/10/17 09:03:36;;;;;;;23.05;10.63;;;;;;;7.73;73.67;96579.63;2064891;28;20678;-64
2023/10/17 09:04:38;;;;;;;22.58;12.32;;;;;;;7.87;73.49;96581.75;2068155;28;20206;-63
2023/10/17 09:07:31;;;;;;;19.45;10.85;;;;;;;8.18;72.44;96570.28;2064800;28;20191;-63
2023/10/17 09:08:55;;;;;;;17.70;11.32;;;;;;;8.17;72.83;96573.78;2067893;28;20232;-64
2023/10/17 09:10:07;;;;;;;18.75;11.80;;;;;;;7.90;73.34;96568.66;2067116;28;20233;-64
2023/10/17 09:11:08;;;;;;;22.75;13.63;;;;;;;7.86;73.38;96561.88;2064623;28;20692;-64
2023/10/17 09:12:22;;;;;;;19.02;12.32;;;;;;;7.84;73.34;96568.88;2065572;28;20638;-64
2023/10/17 09:14:49;;;;;;;18.85;11.10;;;;;;;8.15;73.00;96560.84;2060250;28;20240;-64
2023/10/17 09:15:57;;;;;;;22.77;11.10;;;;;;;8.17;72.72;96569.41;2062058;28;20202;-64
2023/10/17 09:17:28;;;;;;;29.88;12.68;;;;;;;8.56;72.26;96565.44;2064062;28;20296;-65
2023/10/17 09:18:39;;;;;;;27.08;12.30;;;;;;;8.60;71.90;96566.19;2065628;28;20598;-64
2023/10/17 09:19:50;;;;;;;22.83;12.52;;;;;;;8.51;71.81;96567.38;2065570;28;20534;-64
2023/10/17 09:20:52;;;;;;;24.02;12.30;;;;;;;8.61;71.12;96562.66;2075042;28;20225;-64
2023/10/17 09:21:54;;;;;;;24.30;12.90;;;;;;;8.70;71.03;96567.50;2077938;28;20194;-64
2023/10/17 09:22:55;;;;;;;25.00;14.38;;;;;;;8.70;70.94;96577.06;2076078;28;20296;-64
2023/10/17 09:23:57;;;;;;;21.58;12.80;;;;;;;9.08;70.77;96583.41;2073020;28;20210;-64
2023/10/17 09:24:59;;;;;;;23.63;12.35;;;;;;;9.15;70.32;96581.38;2074998;28;20197;-64
2023/10/17 09:26:07;;;;;;;19.40;11.95;;;;;;;9.22;69.37;96580.25;2067807;28;20248;-64
2023/10/17 09:27:14;;;;;;;24.23;12.40;;;;;;;9.07;69.96;96579.09;2065230;28;20277;-64
2023/10/17 09:28:19;;;;;;;22.30;12.38;;;;;;;9.27;69.57;96575.69;2068060;28;20187;-65
2023/10/17 09:29:20;;;;;;;23.23;13.05;;;;;;;9.63;68.86;96576.84;2066122;28;20191;-64
2023/10/17 09:30:26;;;;;;;20.23;12.95;;;;;;;9.58;69.07;96563.16;2066672;28;20225;-64
2023/10/17 09:31:29;;;;;;;20.90;11.90;;;;;;;9.34;69.18;96580.66;2065337;28;20193;-64
2023/10/17 09:32:36;;;;;;;21.92;13.15;;;;;;;9.93;67.69;96574.69;2065105;28;20281;-64
2023/10/17 09:33:45;;;;;;;19.48;11.95;;;;;;;8.72;69.33;96570.88;2066328;28;20901;-64
2023/10/17 09:34:49;;;;;;;22.35;12.68;;;;;;;8.38;71.44;96576.50;2066941;28;20203;-64
2023/10/17 09:35:51;;;;;;;21.40;11.95;;;;;;;8.94;70.55;96583.09;2066487;28;20247;-64
2023/10/17 09:37:04;;;;;;;25.08;13.07;;;;;;;8.85;70.06;96570.41;2067076;28;20194;-64
2023/10/17 09:38:07;;;;;;;22.08;12.93;;;;;;;8.77;70.25;96578.53;2066952;28;20245;-64
2023/10/17 09:39:15;;;;;;;22.95;13.10;;;;;;;8.32;71.86;96575.81;2067475;28;20191;-64
2023/10/17 09:40:33;;;;;;;24.50;11.93;;;;;;;8.48;71.69;96570.94;2066788;28;20578;-64
2023/10/17 09:41:34;;;;;;;21.38;12.85;;;;;;;8.20;72.30;96570.22;2066667;28;20670;-64
2023/10/17 09:42:37;;;;;;;18.25;11.50;;;;;;;8.35;72.54;96574.84;2063649;28;20325;-64
2023/10/17 09:43:39;;;;;;;24.70;13.05;;;;;;;7.96;73.09;96575.38;2065283;28;20786;-63
2023/10/17 09:44:40;;;;;;;20.20;12.82;;;;;;;7.99;73.65;96572.69;2066940;28;20205;-64
2023/10/17 09:45:45;;;;;;;24.98;14.43;;;;;;;7.70;73.90;96574.53;2065743;28;20301;-63
2023/10/17 09:46:50;;;;;;;20.90;12.50;;;;;;;7.95;73.99;96577.16;2067007;28;20229;-64
2023/10/17 09:47:54;;;;;;;20.23;12.00;;;;;;;7.75;73.59;96577.84;2066927;28;20239;-64
2023/10/17 09:49:00;;;;;;;23.00;12.35;;;;;;;7.88;73.87;96573.06;2068227;28;20756;-64
2023/10/17 09:50:03;;;;;;;20.95;11.27;;;;;;;8.07;73.41;96577.63;2066221;28;20206;-64
2023/10/17 09:51:05;;;;;;;19.17;11.85;;;;;;;8.19;72.78;96571.97;2067848;28;20220;-64
2023/10/17 09:52:09;;;;;;;25.80;12.48;;;;;;;8.09;73.73;96584.47;2065219;28;20653;-64
2023/10/17 09:53:20;;;;;;;19.42;11.73;;;;;;;8.33;73.23;96576.69;2070271;28;20604;-64
2023/10/17 09:54:22;;;;;;;20.35;11.35;;;;;;;8.10;72.96;96572.28;2070975;28;20213;-64
2023/10/17 09:55:24;;;;;;;24.50;12.73;;;;;;;8.21;73.12;96575.34;2066056;28;20222;-64
2023/10/17 09:56:36;;;;;;;19.08;12.10;;;;;;;8.37;72.92;96577.38;2067076;28;20194;-65
2023/10/17 09:57:43;;;;;;;18.98;11.82;;;;;;;8.27;72.84;96585.53;2065520;28;20233;-64
2023/10/17 09:58:54;;;;;;;20.75;11.85;;;;;;;8.42;72.59;96589.34;2065597;28;20209;-64
2023/10/17 10:00:09;;;;;;;18.88;12.57;;;;;;;8.16;72.76;96585.06;2066716;28;20734;-64
2023/10/17 10:01:15;;;;;;;18.15;10.85;;;;;;;8.46;72.43;96582.31;2068428;28;21080;-64
2023/10/17 10:02:20;;;;;;;20.05;12.00;;;;;;;8.26;72.83;96581.25;2065880;28;20663;-64
2023/10/17 10:03:24;;;;;;;29.10;12.57;;;;;;;8.06;73.39;96581.94;2066855;28;20222;-64
2023/10/17 10:04:28;;;;;;;18.95;11.50;;;;;;;8.08;73.26;96580.16;2066060;28;20194;-65
2023/10/17 10:05:29;;;;;;;21.70;12.77;;;;;;;8.04;73.27;96562.09;2067310;28;20241;-64
2023/10/17 10:06:32;;;;;;;21.70;12.88;;;;;;;8.38;73.11;96579.97;2066271;28;20198;-64
2023/10/17 10:07:34;;;;;;;35.67;12.10;;;;;;;8.23;73.23;96583.97;2065491;28;20301;-64
2023/10/17 10:08:36;;;;;;;22.70;11.43;;;;;;;8.04;73.73;96586.38;2064352;28;20300;-64
2023/10/17 10:09:37;;;;;;;27.55;12.88;;;;;;;8.26;73.41;96583.00;2066729;28;20205;-64
2023/10/17 10:10:42;;;;;;;20.88;11.82;;;;;;;8.59;72.73;96585.28;2065832;28;20309;-64
2023/10/17 10:11:49;;;;;;;18.30;12.73;;;;;;;8.89;71.50;96593.69;2065214;28;20307;-64
2023/10/17 10:12:58;;;;;;;22.83;12.88;;;;;;;9.25;70.04;96587.09;2064373;28;20241;-64
2023/10/17 10:14:04;;;;;;;20.67;11.02;;;;;;;9.24;69.98;96590.59;2068167;28;20248;-64
2023/10/17 10:15:06;;;;;;;18.55;11.70;;;;;;;9.23;70.71;96584.53;2065658;28;20715;-64
2023/10/17 10:16:08;;;;;;;20.55;10.98;;;;;;;9.62;69.38;96583.81;2067745;28;20763;-64
2023/10/17 10:17:14;;;;;;;23.40;13.07;;;;;;;9.33;69.91;96587.59;2066977;28;20194;-65
2023/10/17 10:18:16;;;;;;;17.52;11.10;;;;;;;9.25;69.38;96580.09;2065072;28;20203;-64
2023/10/17 10:19:18;;;;;;;19.35;11.27;;;;;;;8.96;70.19;96579.53;2066668;28;20252;-66
2023/10/17 10:20:19;;;;;;;23.40;11.98;;;;;;;8.85;70.92;96578.22;2063988;28;20241;-65
2023/10/17 10:21:22;;;;;;;17.45;11.65;;;;;;;8.77;71.18;96586.34;2065591;28;20199;-66
2023/10/17 10:22:24;;;;;;;18.88;11.50;;;;;;;8.79;70.79;96584.53;2065670;28;20205;-64
2023/10/17 10:23:34;;;;;;;18.52;11.20;;;;;;;8.99;70.70;96579.41;2067258;28;20201;-64
2023/10/17 10:25:04;;;;;;;18.20;11.60;;;;;;;8.82;70.55;96581.81;2064958;28;20193;-64
2023/10/17 10:26:11;;;;;;;23.63;11.25;;;;;;;8.99;70.56;96578.56;2066138;28;20229;-64
2023/10/17 10:27:24;;;;;;;21.45;10.98;;;;;;;9.05;70.08;96575.69;2065542;28;20187;-64
2023/10/17 10:28:36;;;;;;;21.42;10.45;;;;;;;9.27;69.48;96580.06;2064253;28;20656;-64
2023/10/17 10:29:37;;;;;;;22.00;11.15;;;;;;;9.41;69.56;96577.72;2067831;28;20249;-70
2023/10/17 10:30:43;;;;;;;16.48;10.40;;;;;;;9.35;69.21;96572.78;2066165;28;20279;-70
2023/10/17 10:31:45;;;;;;;17.25;9.70;;;;;;;9.58;68.26;96569.19;2065074;28;20193;-69
2023/10/17 10:32:50;;;;;;;23.27;11.02;;;;;;;9.40;69.50;96565.59;2067185;28;20229;-70
2023/10/17 10:33:53;;;;;;;20.10;11.02;;;;;;;9.82;68.68;96563.88;2068987;28;20247;-70
2023/10/17 10:34:55;;;;;;;19.83;11.30;;;;;;;9.97;68.65;96565.81;2067213;28;20498;-70
2023/10/17 10:35:57;;;;;;;23.10;10.68;;;;;;;10.23;67.72;96566.44;2065876;28;20198;-70
2023/10/17 10:36:59;;;;;;;19.00;10.07;;;;;;;10.54;67.50;96564.22;2072485;28;20285;-70
2023/10/17 10:38:01;;;;;;;24.63;10.95;;;;;;;10.92;65.91;96567.66;2072608;28;20200;-70
2023/10/17 10:39:12;;;;;;;18.52;9.90;;;;;;;11.14;65.71;96566.63;2064722;28;20233;-70
2023/10/17 10:40:17;;;;;;;23.08;9.57;;;;;;;11.57;65.46;96571.53;2065256;28;20243;-70
2023/10/17 10:41:19;;;;;;;21.73;9.70;;;;;;;11.05;65.08;96567.94;2065610;28;20331;-70
2023/10/17 10:42:21;;;;;;;17.55;10.30;;;;;;;11.19;64.29;96569.03;2064593;28;20194;-70
2023/10/17 10:43:22;;;;;;;18.27;11.20;;;;;;;10.61;65.87;96576.94;2067436;28;20192;-70
2023/10/17 10:44:25;;;;;;;18.00;9.02;;;;;;;10.89;65.92;96567.81;2067503;28;20267;-70
2023/10/17 10:45:31;;;;;;;17.05;10.43;;;;;;;11.45;64.71;96567.75;2066159;28;20249;-70
2023/10/17 10:46:34;;;;;;;20.40;9.80;;;;;;;11.54;64.45;96580.38;2064838;28;20301;-70
2023/10/17 10:47:36;;;;;;;18.38;9.38;;;;;;;10.75;64.65;96583.28;2063777;28;20697;-71
2023/10/17 10:48:51;;;;;;;15.75;10.18;;;;;;;10.90;65.42;96568.66;2063250;28;20206;-70
2023/10/17 10:49:52;;;;;;;14.95;9.30;;;;;;;11.46;64.24;96568.63;2061100;28;20298;-72
2023/10/17 10:50:55;;;;;;;16.23;10.18;;;;;;;11.79;63.43;96568.69;2060625;28;20255;-72
2023/10/17 10:51:58;;;;;;;17.80;9.45;;;;;;;11.67;63.69;96553.59;2061448;28;20224;-72
2023/10/17 10:53:18;;;;;;;19.20;10.05;;;;;;;11.70;63.33;96569.16;2065726;28;20208;-73
2023/10/17 10:54:20;;;;;;;19.35;9.55;;;;;;;12.01;62.41;96565.00;2066290;28;20197;-72
2023/10/17 10:55:25;;;;;;;19.50;9.45;;;;;;;11.98;62.43;96554.69;2064499;28;20243;-72
2023/10/17 10:56:27;;;;;;;18.50;9.50;;;;;;;11.98;62.43;96554.69;2065254;28;20280;-72
2023/10/17 10:57:29;;;;;;;16.40;9.48;;;;;;;12.23;61.13;96557.72;2066333;28;20253;-72
2023/10/17 10:58:36;;;;;;;15.02;8.90;;;;;;;12.35;61.16;96561.44;2066780;28;20284;-72
2023/10/17 10:59:48;;;;;;;15.65;8.32;;;;;;;12.96;60.41;96563.44;2065753;28;20643;-72
2023/10/17 11:00:50;;;;;;;18.20;8.90;;;;;;;13.20;59.69;96559.47;2065499;28;20935;-72
2023/10/17 11:01:51;;;;;;;17.63;9.20;;;;;;;13.60;58.93;96556.38;2066739;28;20205;-72
2023/10/17 11:02:53;;;;;;;23.55;8.98;;;;;;;13.10;59.14;96563.50;2064648;28;20307;-72
2023/10/17 11:03:58;;;;;;;20.55;8.57;;;;;;;13.25;59.33;96563.59;2067977;28;20205;-72
2023/10/17 11:04:59;;;;;;;20.15;9.02;;;;;;;13.31;59.06;96563.25;2067788;28;20194;-73
2023/10/17 11:06:07;;;;;;;17.83;9.00;;;;;;;13.16;59.08;96560.56;2067659;28;20197;-72
2023/10/17 11:07:23;;;;;;;22.77;9.38;;;;;;;12.46;59.71;96555.66;2065686;28;20199;-72
2023/10/17 11:08:32;;;;;;;21.35;8.23;;;;;;;12.52;60.39;96562.31;2066410;28;20640;-72
2023/10/17 11:09:34;;;;;;;16.90;9.77;;;;;;;11.99;61.26;96564.25;2065507;28;20213;-73
2023/10/17 11:10:35;;;;;;;14.63;8.63;;;;;;;11.49;62.21;96571.94;2067672;28;20225;-72
2023/10/17 11:11:46;;;;;;;20.20;9.50;;;;;;;11.10;64.06;96565.09;2063928;28;20338;-72
2023/10/17 11:12:54;;;;;;;16.88;8.90;;;;;;;11.77;62.79;96562.69;2064199;28;20194;-73
2023/10/17 11:13:56;;;;;;;15.25;8.95;;;;;;;12.24;62.22;96559.41;2067934;28;20225;-72
2023/10/17 11:15:14;;;;;;;16.90;10.13;;;;;;;12.59;61.39;96558.44;2066166;28;20284;-72
2023/10/17 11:16:18;;;;;;;15.65;8.95;;;;;;;11.96;61.69;96546.06;2065009;28;20200;-72
2023/10/17 11:17:23;;;;;;;13.80;8.73;;;;;;;12.46;61.10;96555.66;2064636;28;20268;-72
2023/10/17 11:18:25;;;;;;;13.75;8.77;;;;;;;12.84;60.52;96551.88;2066641;28;20205;-73
2023/10/17 11:19:28;;;;;;;14.23;8.43;;;;;;;13.18;59.38;96556.09;2064998;28;20190;-73
2023/10/17 11:20:30;;;;;;;17.23;10.18;;;;;;;13.18;59.12;96553.47;2061410;28;20222;-72
2023/10/17 11:21:31;;;;;;;20.05;9.65;;;;;;;13.62;58.17;96553.66;2064119;28;20600;-73
2023/10/17 11:22:33;;;;;;;15.38;8.68;;;;;;;13.56;57.90;96547.00;2066129;28;20202;-70
2023/10/17 11:23:50;;;;;;;81.07;43.35;;;;;;;13.31;58.94;96547.53;2069232;28;20195;-69
2023/10/17 11:24:52;;;;;;;17.85;10.65;;;;;;;12.95;59.37;96544.28;2065526;28;20203;-69
2023/10/17 11:25:55;;;;;;;62.15;37.78;;;;;;;13.07;59.27;96548.81;2065758;28;20271;-70
2023/10/17 11:26:57;;;;;;;76.43;48.03;;;;;;;13.13;59.58;96545.00;2063630;28;20209;-71
2023/10/17 11:28:07;;;;;;;20.27;10.77;;;;;;;13.27;59.55;96549.47;2066662;28;20233;-71
2023/10/17 11:29:10;;;;;;;15.90;9.27;;;;;;;12.78;59.79;96545.19;2068404;28;20856;-70
2023/10/17 11:30:18;;;;;;;18.33;9.40;;;;;;;13.02;59.89;96552.63;2065087;28;20233;-70
2023/10/17 11:31:21;;;;;;;15.82;9.45;;;;;;;13.43;59.44;96554.69;2064356;28;20194;-69
2023/10/17 11:32:24;;;;;;;14.73;8.57;;;;;;;13.52;58.86;96551.56;2065463;28;20285;-69
2023/10/17 11:33:37;;;;;;;19.70;9.13;;;;;;;13.36;59.44;96542.84;2067606;28;20198;-69
2023/10/17 11:34:39;;;;;;;17.35;9.70;;;;;;;13.26;59.44;96545.16;2065728;28;20241;-69
2023/10/17 11:35:47;;;;;;;20.00;8.93;;;;;;;13.03;59.66;96544.69;2063779;28;20218;-69
2023/10/17 11:36:51;;;;;;;16.92;9.43;;;;;;;12.96;59.96;96545.09;2066638;28;20190;-69
2023/10/17 11:37:53;;;;;;;20.17;10.02;;;;;;;12.44;60.79;96539.16;2068537;28;20202;-69
2023/10/17 11:39:05;;;;;;;17.67;9.70;;;;;;;12.72;60.59;96538.53;2068557;28;20237;-69
2023/10/17 11:40:28;;;;;;;35.88;11.27;;;;;;;12.83;60.62;96542.34;2066451;28;20341;-69
2023/10/17 11:41:57;;;;;;;14.02;9.30;;;;;;;12.68;60.25;96541.38;2065532;28;20199;-67
2023/10/17 11:42:59;;;;;;;19.92;9.95;;;;;;;11.41;62.91;96537.47;2067350;28;20304;-67
2023/10/17 11:44:06;;;;;;;27.83;9.20;;;;;;;10.81;64.75;96537.75;2067838;28;20202;-67
2023/10/17 11:45:33;;;;;;;24.30;9.40;;;;;;;11.63;63.61;96537.25;2063137;28;20240;-68
2023/10/17 11:46:37;;;;;;;24.98;9.80;;;;;;;11.73;62.76;96535.84;2062554;28;20233;-69
2023/10/17 11:47:40;;;;;;;28.60;9.95;;;;;;;11.74;63.14;96528.84;2064371;28;20285;-69
2023/10/17 11:48:45;;;;;;;18.05;9.88;;;;;;;12.03;62.60;96534.38;2065493;28;20209;-69
2023/10/17 11:49:49;;;;;;;17.73;8.65;;;;;;;12.10;62.24;96527.91;2066976;28;20201;-69
2023/10/17 11:51:28;;;;;;;16.25;10.10;;;;;;;12.16;62.35;96530.16;2065247;28;20225;-69
2023/10/17 11:52:30;;;;;;;16.85;9.55;;;;;;;12.10;62.15;96527.91;2064656;28;20240;-69
2023/10/17 11:53:33;;;;;;;16.65;9.85;;;;;;;12.07;62.26;96531.53;2063364;28;20282;-69
2023/10/17 11:55:00;;;;;;;16.60;8.77;;;;;;;11.96;62.29;96531.22;2062709;28;20767;-69
2023/10/17 11:56:01;;;;;;;20.23;9.88;;;;;;;11.45;63.21;96533.75;2063783;28;20282;-69
2023/10/17 11:57:14;;;;;;;21.20;10.10;;;;;;;11.16;64.10;96527.38;2064854;28;20247;-69
2023/10/17 11:58:28;;;;;;;20.35;9.90;;;;;;;11.37;64.23;96536.75;2066589;28;20224;-69
2023/10/17 11:59:30;;;;;;;15.45;8.98;;;;;;;11.56;63.24;96525.38;2066030;28;20645;-68
2023/10/17 12:00:31;;;;;;;24.42;10.30;;;;;;;11.44;63.64;96532.94;2062623;28;20716;-69
2023/10/17 12:01:33;;;;;;;16.58;10.20;;;;;;;11.87;63.32;96542.13;2064207;28;20195;-69
2023/10/17 12:02:41;;;;;;;19.73;11.77;;;;;;;11.32;63.12;96538.75;2065078;28;20388;-69
2023/10/17 12:03:43;;;;;;;16.23;9.50;;;;;;;11.42;63.93;96537.38;2067556;28;20208;-68
2023/10/17 12:04:45;;;;;;;17.67;9.80;;;;;;;11.89;63.06;96538.50;2062511;28;20232;-69
2023/10/17 12:05:47;;;;;;;18.73;10.60;;;;;;;12.17;62.09;96529.25;2061833;28;20223;-68
2023/10/17 12:06:48;;;;;;;20.25;9.82;;;;;;;12.50;61.56;96527.53;2064840;28;20197;-69
2023/10/17 12:07:57;;;;;;;22.45;10.30;;;;;;;12.76;61.08;96533.97;2066280;28;20602;-69
2023/10/17 12:08:58;;;;;;;13.85;9.48;;;;;;;12.76;60.67;96533.97;2065123;28;20205;-69
2023/10/17 12:10:04;;;;;;;19.00;10.30;;;;;;;12.81;60.36;96529.31;2064702;28;20288;-69
2023/10/17 12:11:06;;;;;;;19.35;9.52;;;;;;;13.00;59.90;96520.41;2063933;28;20195;-69
2023/10/17 12:12:07;;;;;;;18.10;9.82;;;;;;;12.66;60.22;96520.53;2063280;28;20549;-69
2023/10/17 12:13:13;;;;;;;17.42;9.77;;;;;;;12.17;61.35;96517.94;2067296;28;20280;-69
2023/10/17 12:14:20;;;;;;;20.58;10.27;;;;;;;12.93;60.46;96513.84;2067143;28;20778;-68
2023/10/17 12:15:22;;;;;;;20.30;10.25;;;;;;;14.21;57.65;96516.88;2064941;28;20225;-69
2023/10/17 12:16:23;;;;;;;17.17;9.75;;;;;;;14.75;56.43;96510.09;2066742;28;20230;-69
2023/10/17 12:17:25;;;;;;;23.33;10.82;;;;;;;15.66;54.63;96505.00;2066123;28;20190;-69
2023/10/17 12:18:27;;;;;;;20.63;10.38;;;;;;;16.46;52.74;96511.84;2066977;28;20248;-69
2023/10/17 12:19:28;;;;;;;26.95;11.15;;;;;;;15.52;53.80;96503.28;2064961;28;20702;-69
2023/10/17 12:20:30;;;;;;;32.35;9.98;;;;;;;15.16;54.58;96504.78;2061502;28;20223;-69
2023/10/17 12:21:31;;;;;;;18.75;9.07;;;;;;;15.32;54.42;96512.50;2062928;28;20263;-69
2023/10/17 12:22:34;;;;;;;16.73;9.10;;;;;;;15.30;54.65;96509.16;2066258;28;20697;-69
2023/10/17 12:23:35;;;;;;;22.27;10.10;;;;;;;13.25;58.57;96503.28;2066566;28;20843;-68
2023/10/17 12:24:37;;;;;;;19.98;9.88;;;;;;;13.98;57.71;96502.50;2066243;28;20591;-69
2023/10/17 12:25:42;;;;;;;16.35;10.48;;;;;;;13.76;58.07;96509.06;2062656;28;20234;-69
2023/10/17 12:26:45;;;;;;;20.67;10.82;;;;;;;13.20;58.97;96506.16;2063928;28;20704;-67
2023/10/17 12:27:49;;;;;;;15.38;9.95;;;;;;;13.39;58.74;96496.34;2064943;28;20253;-67
2023/10/17 12:28:54;;;;;;;17.08;8.80;;;;;;;12.42;59.99;96501.75;2065544;28;20206;-67
2023/10/17 12:29:58;;;;;;;17.73;9.32;;;;;;;11.94;61.61;96496.41;2066369;28;20207;-66
2023/10/17 12:30:59;;;;;;;21.02;10.18;;;;;;;11.84;61.94;96496.03;2063355;28;20716;-66
2023/10/17 12:32:01;;;;;;;16.17;10.32;;;;;;;11.53;63.11;96502.00;2066516;28;20240;-66
2023/10/17 12:33:05;;;;;;;20.73;10.50;;;;;;;11.33;63.26;96506.47;2070327;28;20193;-67
2023/10/17 12:34:07;;;;;;;26.10;10.30;;;;;;;11.52;63.46;96498.53;2068437;28;20561;-66
2023/10/17 12:35:12;;;;;;;23.42;10.65;;;;;;;11.65;63.90;96488.28;2066075;28;20222;-66
2023/10/17 12:36:14;;;;;;;20.02;10.10;;;;;;;11.95;63.74;96498.09;2065848;28;20661;-66
2023/10/17 12:37:17;;;;;;;18.98;10.25;;;;;;;12.71;61.65;96496.69;2066437;28;20632;-66
2023/10/17 12:38:25;;;;;;;18.35;9.95;;;;;;;12.27;62.56;96489.50;2067484;28;20611;-66
2023/10/17 12:39:31;;;;;;;19.45;10.48;;;;;;;12.65;61.12;96494.41;2067919;28;20225;-67
2023/10/17 12:40:32;;;;;;;21.95;10.63;;;;;;;12.85;60.67;96498.53;2066059;28;20311;-67
2023/10/17 12:41:35;;;;;;;17.83;10.43;;;;;;;12.14;61.44;96495.38;2066220;28;20267;-66
2023/10/17 12:42:36;;;;;;;17.77;11.30;;;;;;;11.64;63.11;96499.69;2067009;28;20790;-66
2023/10/17 12:43:39;;;;;;;18.40;10.05;;;;;;;11.53;63.94;96492.41;2067303;28;20220;-67
2023/10/17 12:44:41;;;;;;;16.75;9.63;;;;;;;11.15;64.66;96483.84;2067301;28;20189;-66
2023/10/17 12:45:43;;;;;;;22.25;9.10;;;;;;;11.55;64.07;96487.94;2065660;28;20236;-67
2023/10/17 12:46:46;;;;;;;17.83;10.27;;;;;;;11.62;64.51;96488.47;2065985;28;20214;-67
2023/10/17 12:47:48;;;;;;;20.58;10.90;;;;;;;11.40;64.43;96484.34;2066365;28;20224;-67
2023/10/17 12:48:50;;;;;;;29.60;9.80;;;;;;;11.47;64.38;96492.72;2064395;28;20201;-66
2023/10/17 12:49:52;;;;;;;23.52;10.18;;;;;;;11.14;65.50;96485.63;2064613;28;20590;-66
2023/10/17 12:50:54;;;;;;;17.20;9.02;;;;;;;11.05;65.48;96491.31;2066498;28;20313;-66
2023/10/17 12:51:57;;;;;;;18.10;10.55;;;;;;;10.91;65.39;96492.00;2067942;28;20249;-66
2023/10/17 12:52:58;;;;;;;15.75;8.95;;;;;;;10.98;66.32;96482.06;2066149;28;20658;-66
2023/10/17 12:54:00;;;;;;;22.38;9.15;;;;;;;11.39;65.35;96480.03;2065629;28;20195;-66
2023/10/17 12:55:03;;;;;;;32.95;10.40;;;;;;;11.17;65.38;96480.22;2066952;28;20603;-66
2023/10/17 12:56:06;;;;;;;22.95;10.23;;;;;;;11.59;64.69;96486.00;2067711;28;20200;-67
2023/10/17 12:57:08;;;;;;;25.52;9.75;;;;;;;11.24;65.04;96479.03;2068079;28;20594;-67
2023/10/17 12:58:12;;;;;;;22.88;9.85;;;;;;;10.85;65.82;96480.06;2067385;28;20200;-66
2023/10/17 12:59:14;;;;;;;26.25;10.27;;;;;;;10.61;66.85;96479.47;2067840;28;20230;-67